sensor_id;sensor_type;location;lat;lon;timestamp;temperature;humidity
32293;DHT22;43233;48.608;8.838;2023-03-14T00:01:22;10.00;99.90
32293;DHT22;43233;48.608;8.838;2023-03-14T00:03:49;9.90;99.90
32293;DHT22;43233;48.608;8.838;2023-03-14T00:06:15;9.90;99.90
32293;DHT22;43233;48.608;8.838;2023-03-14T00:08:42;9.80;99.90
32293;DHT22;43233;48.608;8.838;2023-03-14T00:11:13;9.80;99.90
32293;DHT22;43233;48.608;8.838;2023-03-14T00:13:39;9.70;99.90
32293;DHT22;43233;48.608;8.838;2023-03-14T00:16:10;9.80;99.90
32293;DHT22;43233;48.608;8.838;2023-03-14T00:18:36;9.70;99.90
32293;DHT22;43233;48.608;8.838;2023-03-14T00:21:03;9.70;99.90
32293;DHT22;43233;48.608;8.838;2023-03-14T00:23:30;9.80;99.90
32293;DHT22;43233;48.608;8.838;2023-03-14T00:26:00;9.90;99.90
32293;DHT22;43233;48.608;8.838;2023-03-14T00:28:26;9.80;99.90
32293;DHT22;43233;48.608;8.838;2023-03-14T00:30:52;9.70;99.90
32293;DHT22;43233;48.608;8.838;2023-03-14T00:33:18;9.70;99.90
32293;DHT22;43233;48.608;8.838;2023-03-14T00:35:51;9.70;99.90
32293;DHT22;43233;48.608;8.838;2023-03-14T00:38:17;9.70;99.90
32293;DHT22;43233;48.608;8.838;2023-03-14T00:40:42;9.60;99.90
32293;DHT22;43233;48.608;8.838;2023-03-14T00:43:08;9.70;99.90
32293;DHT22;43233;48.608;8.838;2023-03-14T00:45:33;9.70;99.90
32293;DHT22;43233;48.608;8.838;2023-03-14T00:48:00;9.70;99.90
32293;DHT22;43233;48.608;8.838;2023-03-14T00:50:25;9.70;99.90
32293;DHT22;43233;48.608;8.838;2023-03-14T00:52:51;9.60;99.90
32293;DHT22;43233;48.608;8.838;2023-03-14T00:55:17;9.50;99.90
32293;DHT22;43233;48.608;8.838;2023-03-14T00:57:42;9.50;99.90
32293;DHT22;43233;48.608;8.838;2023-03-14T01:00:08;9.50;99.90
32293;DHT22;43233;48.608;8.838;2023-03-14T01:02:37;9.50;99.90
32293;DHT22;43233;48.608;8.838;2023-03-14T01:05:02;9.50;99.90
32293;DHT22;43233;48.608;8.838;2023-03-14T01:07:28;9.50;99.90
32293;DHT22;43233;48.608;8.838;2023-03-14T01:09:54;9.40;99.90
32293;DHT22;43233;48.608;8.838;2023-03-14T01:12:19;9.50;99.90
32293;DHT22;43233;48.608;8.838;2023-03-14T01:14:45;9.40;99.90
32293;DHT22;43233;48.608;8.838;2023-03-14T01:17:10;9.40;99.90
32293;DHT22;43233;48.608;8.838;2023-03-14T01:19:36;9.50;99.90
32293;DHT22;43233;48.608;8.838;2023-03-14T01:22:02;9.40;99.90
32293;DHT22;43233;48.608;8.838;2023-03-14T01:24:27;9.40;99.90
32293;DHT22;43233;48.608;8.838;2023-03-14T01:26:53;9.30;99.90
32293;DHT22;43233;48.608;8.838;2023-03-14T01:29:18;9.40;99.90
32293;DHT22;43233;48.608;8.838;2023-03-14T01:31:44;9.30;99.90
32293;DHT22;43233;48.608;8.838;2023-03-14T01:34:10;9.20;99.90
32293;DHT22;43233;48.608;8.838;2023-03-14T01:36:35;9.20;99.90
32293;DHT22;43233;48.608;8.838;2023-03-14T01:39:01;9.20;99.90
32293;DHT22;43233;48.608;8.838;2023-03-14T01:41:27;9.20;99.90
32293;DHT22;43233;48.608;8.838;2023-03-14T01:43:53;9.30;99.90
32293;DHT22;43233;48.608;8.838;2023-03-14T01:46:35;9.20;99.90
32293;DHT22;43233;48.608;8.838;2023-03-14T01:51:38;9.10;99.90
32293;DHT22;43233;48.608;8.838;2023-03-14T01:54:16;9.10;99.90
32293;DHT22;43233;48.608;8.838;2023-03-14T01:56:47;9.10;99.90
32293;DHT22;43233;48.608;8.838;2023-03-14T01:59:13;9.10;99.90
32293;DHT22;43233;48.608;8.838;2023-03-14T02:01:42;9.10;99.90
32293;DHT22;43233;48.608;8.838;2023-03-14T02:04:09;9.00;99.90
32293;DHT22;43233;48.608;8.838;2023-03-14T02:07:05;9.00;99.90
32293;DHT22;43233;48.608;8.838;2023-03-14T02:09:34;9.00;99.90
32293;DHT22;43233;48.608;8.838;2023-03-14T02:12:00;9.00;99.90
32293;DHT22;43233;48.608;8.838;2023-03-14T02:14:33;9.00;99.90
32293;DHT22;43233;48.608;8.838;2023-03-14T02:17:01;9.00;99.90
32293;DHT22;43233;48.608;8.838;2023-03-14T02:22:20;9.00;99.90
32293;DHT22;43233;48.608;8.838;2023-03-14T02:27:30;9.10;99.90
32293;DHT22;43233;48.608;8.838;2023-03-14T02:30:00;9.00;99.90
32293;DHT22;43233;48.608;8.838;2023-03-14T02:32:27;9.00;99.40
32293;DHT22;43233;48.608;8.838;2023-03-14T02:34:56;9.00;98.90
32293;DHT22;43233;48.608;8.838;2023-03-14T02:37:26;9.00;98.60
32293;DHT22;43233;48.608;8.838;2023-03-14T02:39:53;9.00;97.80
32293;DHT22;43233;48.608;8.838;2023-03-14T02:42:20;8.90;96.90
32293;DHT22;43233;48.608;8.838;2023-03-14T02:44:54;8.90;97.10
32293;DHT22;43233;48.608;8.838;2023-03-14T02:47:28;8.90;95.70
32293;DHT22;43233;48.608;8.838;2023-03-14T02:49:59;8.80;97.30
32293;DHT22;43233;48.608;8.838;2023-03-14T02:52:26;8.80;96.70
32293;DHT22;43233;48.608;8.838;2023-03-14T02:54:52;8.80;96.30
32293;DHT22;43233;48.608;8.838;2023-03-14T02:57:18;8.80;96.60
32293;DHT22;43233;48.608;8.838;2023-03-14T02:59:43;8.70;96.60
32293;DHT22;43233;48.608;8.838;2023-03-14T03:02:09;8.60;96.10
32293;DHT22;43233;48.608;8.838;2023-03-14T03:04:34;8.60;96.40
32293;DHT22;43233;48.608;8.838;2023-03-14T03:07:00;8.60;96.00
32293;DHT22;43233;48.608;8.838;2023-03-14T03:09:25;8.60;95.40
32293;DHT22;43233;48.608;8.838;2023-03-14T03:11:51;8.60;95.20
32293;DHT22;43233;48.608;8.838;2023-03-14T03:14:17;8.60;94.80
32293;DHT22;43233;48.608;8.838;2023-03-14T03:16:42;8.50;95.50
32293;DHT22;43233;48.608;8.838;2023-03-14T03:19:08;8.50;94.70
32293;DHT22;43233;48.608;8.838;2023-03-14T03:21:33;8.50;93.50
32293;DHT22;43233;48.608;8.838;2023-03-14T03:24:00;8.40;93.50
32293;DHT22;43233;48.608;8.838;2023-03-14T03:26:25;8.40;93.20
32293;DHT22;43233;48.608;8.838;2023-03-14T03:28:51;8.30;93.00
32293;DHT22;43233;48.608;8.838;2023-03-14T03:31:18;8.30;93.20
32293;DHT22;43233;48.608;8.838;2023-03-14T03:33:43;8.30;94.00
32293;DHT22;43233;48.608;8.838;2023-03-14T03:36:09;8.20;94.10
32293;DHT22;43233;48.608;8.838;2023-03-14T03:38:35;8.20;93.50
32293;DHT22;43233;48.608;8.838;2023-03-14T03:41:07;8.20;93.80
32293;DHT22;43233;48.608;8.838;2023-03-14T03:43:32;8.20;93.20
32293;DHT22;43233;48.608;8.838;2023-03-14T03:45:58;8.20;93.00
32293;DHT22;43233;48.608;8.838;2023-03-14T03:48:27;8.20;92.10
32293;DHT22;43233;48.608;8.838;2023-03-14T03:50:53;8.30;91.60
32293;DHT22;43233;48.608;8.838;2023-03-14T03:53:18;8.20;91.20
32293;DHT22;43233;48.608;8.838;2023-03-14T03:55:44;8.10;91.40
32293;DHT22;43233;48.608;8.838;2023-03-14T03:58:09;8.10;91.50
32293;DHT22;43233;48.608;8.838;2023-03-14T04:00:35;8.10;91.20
32293;DHT22;43233;48.608;8.838;2023-03-14T04:03:01;8.10;91.50
32293;DHT22;43233;48.608;8.838;2023-03-14T04:05:26;8.10;90.60
32293;DHT22;43233;48.608;8.838;2023-03-14T04:07:52;8.10;90.40
32293;DHT22;43233;48.608;8.838;2023-03-14T04:10:17;8.10;89.80
32293;DHT22;43233;48.608;8.838;2023-03-14T04:12:43;8.10;90.40
32293;DHT22;43233;48.608;8.838;2023-03-14T04:15:09;8.20;90.30
32293;DHT22;43233;48.608;8.838;2023-03-14T04:17:35;8.20;90.00
32293;DHT22;43233;48.608;8.838;2023-03-14T04:20:00;8.10;90.60
32293;DHT22;43233;48.608;8.838;2023-03-14T04:22:26;8.10;90.50
32293;DHT22;43233;48.608;8.838;2023-03-14T04:24:51;8.10;89.20
32293;DHT22;43233;48.608;8.838;2023-03-14T04:27:17;8.20;87.90
32293;DHT22;43233;48.608;8.838;2023-03-14T04:29:43;8.20;88.40
32293;DHT22;43233;48.608;8.838;2023-03-14T04:32:08;8.20;88.40
32293;DHT22;43233;48.608;8.838;2023-03-14T04:34:34;8.20;89.00
32293;DHT22;43233;48.608;8.838;2023-03-14T04:36:59;8.20;88.50
32293;DHT22;43233;48.608;8.838;2023-03-14T04:39:25;8.10;88.20
32293;DHT22;43233;48.608;8.838;2023-03-14T04:41:51;8.20;87.90
32293;DHT22;43233;48.608;8.838;2023-03-14T04:44:17;8.20;88.40
32293;DHT22;43233;48.608;8.838;2023-03-14T04:46:43;8.10;87.50
32293;DHT22;43233;48.608;8.838;2023-03-14T04:49:08;8.10;88.20
32293;DHT22;43233;48.608;8.838;2023-03-14T04:51:34;8.00;88.50
32293;DHT22;43233;48.608;8.838;2023-03-14T04:54:00;8.10;88.40
32293;DHT22;43233;48.608;8.838;2023-03-14T04:56:25;8.10;87.20
32293;DHT22;43233;48.608;8.838;2023-03-14T04:58:51;8.10;87.30
32293;DHT22;43233;48.608;8.838;2023-03-14T05:01:17;8.10;87.60
32293;DHT22;43233;48.608;8.838;2023-03-14T05:03:43;8.10;88.10
32293;DHT22;43233;48.608;8.838;2023-03-14T05:06:08;8.10;87.30
32293;DHT22;43233;48.608;8.838;2023-03-14T05:08:34;8.10;87.70
32293;DHT22;43233;48.608;8.838;2023-03-14T05:11:00;8.20;87.00
32293;DHT22;43233;48.608;8.838;2023-03-14T05:13:25;8.20;86.00
32293;DHT22;43233;48.608;8.838;2023-03-14T05:15:51;8.20;86.20
32293;DHT22;43233;48.608;8.838;2023-03-14T05:18:18;8.20;86.30
32293;DHT22;43233;48.608;8.838;2023-03-14T05:20:43;8.20;86.40
32293;DHT22;43233;48.608;8.838;2023-03-14T05:23:09;8.20;86.30
32293;DHT22;43233;48.608;8.838;2023-03-14T05:25:35;8.20;86.90
32293;DHT22;43233;48.608;8.838;2023-03-14T05:28:01;8.20;85.80
32293;DHT22;43233;48.608;8.838;2023-03-14T05:30:27;8.20;86.20
32293;DHT22;43233;48.608;8.838;2023-03-14T05:32:53;8.20;86.20
32293;DHT22;43233;48.608;8.838;2023-03-14T05:35:19;8.10;86.60
32293;DHT22;43233;48.608;8.838;2023-03-14T05:37:45;8.20;85.40
32293;DHT22;43233;48.608;8.838;2023-03-14T05:40:11;8.20;86.10
32293;DHT22;43233;48.608;8.838;2023-03-14T05:42:36;8.20;86.10
32293;DHT22;43233;48.608;8.838;2023-03-14T05:45:02;8.20;85.70
32293;DHT22;43233;48.608;8.838;2023-03-14T05:47:28;8.20;85.60
32293;DHT22;43233;48.608;8.838;2023-03-14T05:49:53;8.20;84.80
32293;DHT22;43233;48.608;8.838;2023-03-14T05:52:19;8.30;84.00
32293;DHT22;43233;48.608;8.838;2023-03-14T05:54:45;8.30;83.70
32293;DHT22;43233;48.608;8.838;2023-03-14T05:57:10;8.20;84.10
32293;DHT22;43233;48.608;8.838;2023-03-14T05:59:36;8.10;84.40
32293;DHT22;43233;48.608;8.838;2023-03-14T06:02:01;8.10;84.60
32293;DHT22;43233;48.608;8.838;2023-03-14T06:04:27;8.10;85.10
32293;DHT22;43233;48.608;8.838;2023-03-14T06:06:53;8.10;84.60
32293;DHT22;43233;48.608;8.838;2023-03-14T06:09:18;8.10;85.20
32293;DHT22;43233;48.608;8.838;2023-03-14T06:11:45;8.10;85.50
32293;DHT22;43233;48.608;8.838;2023-03-14T06:14:11;8.10;84.40
32293;DHT22;43233;48.608;8.838;2023-03-14T06:16:37;8.00;84.80
32293;DHT22;43233;48.608;8.838;2023-03-14T06:19:03;8.10;85.50
32293;DHT22;43233;48.608;8.838;2023-03-14T06:21:28;8.10;84.20
32293;DHT22;43233;48.608;8.838;2023-03-14T06:23:54;8.10;84.30
32293;DHT22;43233;48.608;8.838;2023-03-14T06:26:20;8.20;84.10
32293;DHT22;43233;48.608;8.838;2023-03-14T06:28:45;8.20;84.30
32293;DHT22;43233;48.608;8.838;2023-03-14T06:31:11;8.20;83.80
32293;DHT22;43233;48.608;8.838;2023-03-14T06:33:37;8.20;84.00
32293;DHT22;43233;48.608;8.838;2023-03-14T06:36:02;8.20;82.80
32293;DHT22;43233;48.608;8.838;2023-03-14T06:38:28;8.30;83.10
32293;DHT22;43233;48.608;8.838;2023-03-14T06:40:54;8.30;83.40
32293;DHT22;43233;48.608;8.838;2023-03-14T06:43:19;8.30;83.30
32293;DHT22;43233;48.608;8.838;2023-03-14T06:45:47;8.30;82.90
32293;DHT22;43233;48.608;8.838;2023-03-14T06:48:12;8.30;83.10
32293;DHT22;43233;48.608;8.838;2023-03-14T06:50:38;8.30;83.80
32293;DHT22;43233;48.608;8.838;2023-03-14T06:53:03;8.30;83.40
32293;DHT22;43233;48.608;8.838;2023-03-14T06:55:30;8.30;84.00
32293;DHT22;43233;48.608;8.838;2023-03-14T06:57:55;8.30;84.00
32293;DHT22;43233;48.608;8.838;2023-03-14T07:00:21;8.30;84.00
32293;DHT22;43233;48.608;8.838;2023-03-14T07:02:47;8.30;84.10
32293;DHT22;43233;48.608;8.838;2023-03-14T07:05:12;8.30;83.20
32293;DHT22;43233;48.608;8.838;2023-03-14T07:07:38;8.30;83.80
32293;DHT22;43233;48.608;8.838;2023-03-14T07:10:04;8.40;82.90
32293;DHT22;43233;48.608;8.838;2023-03-14T07:12:30;8.50;83.40
32293;DHT22;43233;48.608;8.838;2023-03-14T07:14:55;8.50;82.60
32293;DHT22;43233;48.608;8.838;2023-03-14T07:17:21;8.60;81.50
32293;DHT22;43233;48.608;8.838;2023-03-14T07:19:46;8.60;82.00
32293;DHT22;43233;48.608;8.838;2023-03-14T07:22:12;8.60;80.70
32293;DHT22;43233;48.608;8.838;2023-03-14T07:24:37;8.70;80.00
32293;DHT22;43233;48.608;8.838;2023-03-14T07:27:03;8.70;80.60
32293;DHT22;43233;48.608;8.838;2023-03-14T07:29:28;8.70;80.90
32293;DHT22;43233;48.608;8.838;2023-03-14T07:31:54;8.80;80.80
32293;DHT22;43233;48.608;8.838;2023-03-14T07:34:20;8.90;80.40
32293;DHT22;43233;48.608;8.838;2023-03-14T07:36:45;9.00;80.80
32293;DHT22;43233;48.608;8.838;2023-03-14T07:39:11;9.10;80.50
32293;DHT22;43233;48.608;8.838;2023-03-14T07:41:37;9.20;79.40
32293;DHT22;43233;48.608;8.838;2023-03-14T07:44:02;9.30;78.50
32293;DHT22;43233;48.608;8.838;2023-03-14T07:46:28;9.30;78.70
32293;DHT22;43233;48.608;8.838;2023-03-14T07:48:54;9.40;76.60
32293;DHT22;43233;48.608;8.838;2023-03-14T07:51:19;9.50;78.20
32293;DHT22;43233;48.608;8.838;2023-03-14T07:53:45;9.60;76.40
32293;DHT22;43233;48.608;8.838;2023-03-14T07:56:11;9.60;77.20
32293;DHT22;43233;48.608;8.838;2023-03-14T07:58:36;9.70;74.50
32293;DHT22;43233;48.608;8.838;2023-03-14T08:01:02;9.80;74.20
32293;DHT22;43233;48.608;8.838;2023-03-14T08:03:28;9.80;72.40
32293;DHT22;43233;48.608;8.838;2023-03-14T08:05:54;9.80;73.00
32293;DHT22;43233;48.608;8.838;2023-03-14T08:08:19;9.80;73.30
32293;DHT22;43233;48.608;8.838;2023-03-14T08:10:45;9.80;73.00
32293;DHT22;43233;48.608;8.838;2023-03-14T08:13:11;9.80;73.00
32293;DHT22;43233;48.608;8.838;2023-03-14T08:15:37;9.80;73.60
32293;DHT22;43233;48.608;8.838;2023-03-14T08:18:04;9.80;73.10
32293;DHT22;43233;48.608;8.838;2023-03-14T08:20:30;9.80;73.10
32293;DHT22;43233;48.608;8.838;2023-03-14T08:23:00;9.70;73.10
32293;DHT22;43233;48.608;8.838;2023-03-14T08:25:27;9.70;73.90
32293;DHT22;43233;48.608;8.838;2023-03-14T08:27:53;9.70;74.80
32293;DHT22;43233;48.608;8.838;2023-03-14T08:30:20;9.70;74.00
32293;DHT22;43233;48.608;8.838;2023-03-14T08:32:46;9.70;73.60
32293;DHT22;43233;48.608;8.838;2023-03-14T08:35:12;9.60;75.40
32293;DHT22;43233;48.608;8.838;2023-03-14T08:37:38;9.50;75.70
32293;DHT22;43233;48.608;8.838;2023-03-14T08:40:05;9.50;77.20
32293;DHT22;43233;48.608;8.838;2023-03-14T08:42:36;9.50;77.50
32293;DHT22;43233;48.608;8.838;2023-03-14T08:45:02;9.50;77.00
32293;DHT22;43233;48.608;8.838;2023-03-14T08:47:28;9.40;77.00
32293;DHT22;43233;48.608;8.838;2023-03-14T08:49:53;9.40;77.60
32293;DHT22;43233;48.608;8.838;2023-03-14T08:52:19;9.40;77.70
32293;DHT22;43233;48.608;8.838;2023-03-14T08:54:45;9.30;78.80
32293;DHT22;43233;48.608;8.838;2023-03-14T08:57:11;9.30;80.00
32293;DHT22;43233;48.608;8.838;2023-03-14T08:59:36;9.30;78.60
32293;DHT22;43233;48.608;8.838;2023-03-14T09:02:02;9.30;78.90
32293;DHT22;43233;48.608;8.838;2023-03-14T09:04:32;9.30;78.20
32293;DHT22;43233;48.608;8.838;2023-03-14T09:06:59;9.30;78.10
32293;DHT22;43233;48.608;8.838;2023-03-14T09:09:25;9.30;76.70
32293;DHT22;43233;48.608;8.838;2023-03-14T09:11:54;9.30;78.10
32293;DHT22;43233;48.608;8.838;2023-03-14T09:14:20;9.40;75.80
32293;DHT22;43233;48.608;8.838;2023-03-14T09:16:45;9.40;77.00
32293;DHT22;43233;48.608;8.838;2023-03-14T09:19:11;9.50;77.10
32293;DHT22;43233;48.608;8.838;2023-03-14T09:21:36;9.40;77.10
32293;DHT22;43233;48.608;8.838;2023-03-14T09:24:04;9.40;78.20
32293;DHT22;43233;48.608;8.838;2023-03-14T09:26:30;9.50;77.30
32293;DHT22;43233;48.608;8.838;2023-03-14T09:28:55;9.50;78.40
32293;DHT22;43233;48.608;8.838;2023-03-14T09:31:21;9.60;78.40
32293;DHT22;43233;48.608;8.838;2023-03-14T09:33:46;9.70;79.00
32293;DHT22;43233;48.608;8.838;2023-03-14T09:36:12;9.90;79.00
32293;DHT22;43233;48.608;8.838;2023-03-14T09:38:38;9.90;78.00
32293;DHT22;43233;48.608;8.838;2023-03-14T09:41:13;9.80;77.30
32293;DHT22;43233;48.608;8.838;2023-03-14T09:43:40;9.90;78.40
32293;DHT22;43233;48.608;8.838;2023-03-14T09:46:09;9.90;78.70
32293;DHT22;43233;48.608;8.838;2023-03-14T09:48:36;9.90;76.50
32293;DHT22;43233;48.608;8.838;2023-03-14T09:51:14;10.10;75.20
32293;DHT22;43233;48.608;8.838;2023-03-14T09:53:43;10.20;75.60
32293;DHT22;43233;48.608;8.838;2023-03-14T09:56:13;10.30;75.60
32293;DHT22;43233;48.608;8.838;2023-03-14T09:58:41;10.40;75.20
32293;DHT22;43233;48.608;8.838;2023-03-14T10:01:09;10.50;75.10
32293;DHT22;43233;48.608;8.838;2023-03-14T10:03:36;10.60;72.60
32293;DHT22;43233;48.608;8.838;2023-03-14T10:06:09;10.60;74.10
32293;DHT22;43233;48.608;8.838;2023-03-14T10:08:39;10.80;73.60
32293;DHT22;43233;48.608;8.838;2023-03-14T10:11:05;10.80;73.40
32293;DHT22;43233;48.608;8.838;2023-03-14T10:13:32;10.80;71.80
32293;DHT22;43233;48.608;8.838;2023-03-14T10:16:00;10.70;71.70
32293;DHT22;43233;48.608;8.838;2023-03-14T10:18:29;10.70;72.20
32293;DHT22;43233;48.608;8.838;2023-03-14T10:21:09;10.60;72.10
32293;DHT22;43233;48.608;8.838;2023-03-14T10:23:42;10.50;72.70
32293;DHT22;43233;48.608;8.838;2023-03-14T10:26:24;10.50;72.40
32293;DHT22;43233;48.608;8.838;2023-03-14T10:28:53;10.60;71.90
32293;DHT22;43233;48.608;8.838;2023-03-14T10:31:24;10.50;73.80
32293;DHT22;43233;48.608;8.838;2023-03-14T10:34:02;10.60;72.40
32293;DHT22;43233;48.608;8.838;2023-03-14T10:36:29;10.70;73.00
32293;DHT22;43233;48.608;8.838;2023-03-14T10:39:41;10.70;73.60
32293;DHT22;43233;48.608;8.838;2023-03-14T10:42:21;10.70;74.00
32293;DHT22;43233;48.608;8.838;2023-03-14T10:44:55;10.40;75.00
32293;DHT22;43233;48.608;8.838;2023-03-14T10:47:24;10.30;76.00
32293;DHT22;43233;48.608;8.838;2023-03-14T10:49:51;10.30;77.90
32293;DHT22;43233;48.608;8.838;2023-03-14T10:54:59;10.20;77.90
32293;DHT22;43233;48.608;8.838;2023-03-14T10:57:26;10.10;82.20
32293;DHT22;43233;48.608;8.838;2023-03-14T10:59:53;10.10;80.70
32293;DHT22;43233;48.608;8.838;2023-03-14T11:07:45;10.20;83.90
32293;DHT22;43233;48.608;8.838;2023-03-14T11:10:29;10.20;82.20
32293;DHT22;43233;48.608;8.838;2023-03-14T11:16:19;10.10;87.00
32293;DHT22;43233;48.608;8.838;2023-03-14T11:24:12;9.70;83.90
32293;DHT22;43233;48.608;8.838;2023-03-14T11:26:47;9.70;86.40
32293;DHT22;43233;48.608;8.838;2023-03-14T11:31:57;9.70;86.80
32293;DHT22;43233;48.608;8.838;2023-03-14T11:34:52;9.80;89.00
32293;DHT22;43233;48.608;8.838;2023-03-14T11:37:34;9.90;88.00
32293;DHT22;43233;48.608;8.838;2023-03-14T11:40:19;9.90;86.80
32293;DHT22;43233;48.608;8.838;2023-03-14T11:42:59;10.00;86.80
32293;DHT22;43233;48.608;8.838;2023-03-14T11:45:31;9.90;86.10
32293;DHT22;43233;48.608;8.838;2023-03-14T11:48:17;9.90;87.20
32293;DHT22;43233;48.608;8.838;2023-03-14T11:50:48;9.60;87.80
32293;DHT22;43233;48.608;8.838;2023-03-14T11:53:53;9.40;88.00
32293;DHT22;43233;48.608;8.838;2023-03-14T11:59:07;9.10;88.90
32293;DHT22;43233;48.608;8.838;2023-03-14T12:04:21;9.00;92.50
32293;DHT22;43233;48.608;8.838;2023-03-14T12:06:50;9.10;89.20
32293;DHT22;43233;48.608;8.838;2023-03-14T12:09:21;9.10;84.10
32293;DHT22;43233;48.608;8.838;2023-03-14T12:11:58;9.00;81.20
32293;DHT22;43233;48.608;8.838;2023-03-14T12:14:37;9.00;82.60
32293;DHT22;43233;48.608;8.838;2023-03-14T12:19:41;9.00;88.50
32293;DHT22;43233;48.608;8.838;2023-03-14T12:22:49;9.20;87.30
32293;DHT22;43233;48.608;8.838;2023-03-14T12:28:16;9.20;79.60
32293;DHT22;43233;48.608;8.838;2023-03-14T12:30:36;9.10;65.50
32293;DHT22;43233;48.608;8.838;2023-03-14T12:35:44;9.20;56.00
32293;DHT22;43233;48.608;8.838;2023-03-14T12:43:34;9.20;64.70
32293;DHT22;43233;48.608;8.838;2023-03-14T12:51:16;8.10;59.40
32293;DHT22;43233;48.608;8.838;2023-03-14T13:01:53;8.00;59.70
32293;DHT22;43233;48.608;8.838;2023-03-14T13:04:31;8.00;60.30
32293;DHT22;43233;48.608;8.838;2023-03-14T13:06:59;7.80;62.10
32293;DHT22;43233;48.608;8.838;2023-03-14T13:12:03;7.60;62.50
32293;DHT22;43233;48.608;8.838;2023-03-14T13:14:33;7.60;63.70
32293;DHT22;43233;48.608;8.838;2023-03-14T13:17:02;7.50;64.80
32293;DHT22;43233;48.608;8.838;2023-03-14T13:19:30;7.50;65.10
32293;DHT22;43233;48.608;8.838;2023-03-14T13:22:04;7.40;65.10
32293;DHT22;43233;48.608;8.838;2023-03-14T13:24:33;7.40;62.10
32293;DHT22;43233;48.608;8.838;2023-03-14T13:26:59;7.30;62.20
32293;DHT22;43233;48.608;8.838;2023-03-14T13:29:27;7.30;61.90
32293;DHT22;43233;48.608;8.838;2023-03-14T13:31:56;7.30;64.50
32293;DHT22;43233;48.608;8.838;2023-03-14T13:34:28;7.20;62.10
32293;DHT22;43233;48.608;8.838;2023-03-14T13:36:54;7.10;60.90
32293;DHT22;43233;48.608;8.838;2023-03-14T13:39:23;6.90;60.80
32293;DHT22;43233;48.608;8.838;2023-03-14T13:41:51;6.90;59.60
32293;DHT22;43233;48.608;8.838;2023-03-14T13:46:48;6.80;60.10
32293;DHT22;43233;48.608;8.838;2023-03-14T13:49:22;6.70;60.80
32293;DHT22;43233;48.608;8.838;2023-03-14T13:51:48;6.90;61.70
32293;DHT22;43233;48.608;8.838;2023-03-14T13:54:16;6.90;61.60
32293;DHT22;43233;48.608;8.838;2023-03-14T13:56:42;6.90;61.10
32293;DHT22;43233;48.608;8.838;2023-03-14T13:59:30;6.90;58.70
32293;DHT22;43233;48.608;8.838;2023-03-14T14:01:57;6.90;59.30
32293;DHT22;43233;48.608;8.838;2023-03-14T14:04:25;6.90;57.70
32293;DHT22;43233;48.608;8.838;2023-03-14T14:06:57;6.90;58.50
32293;DHT22;43233;48.608;8.838;2023-03-14T14:12:08;7.00;57.40
32293;DHT22;43233;48.608;8.838;2023-03-14T14:15:29;7.00;58.30
32293;DHT22;43233;48.608;8.838;2023-03-14T14:17:52;7.00;57.30
32293;DHT22;43233;48.608;8.838;2023-03-14T14:20:35;6.90;58.10
32293;DHT22;43233;48.608;8.838;2023-03-14T14:23:09;6.90;58.30
32293;DHT22;43233;48.608;8.838;2023-03-14T14:25:36;6.90;57.70
32293;DHT22;43233;48.608;8.838;2023-03-14T14:28:22;6.90;58.00
32293;DHT22;43233;48.608;8.838;2023-03-14T14:33:42;6.90;53.90
32293;DHT22;43233;48.608;8.838;2023-03-14T14:36:21;7.00;53.90
32293;DHT22;43233;48.608;8.838;2023-03-14T14:38:59;7.00;54.80
32293;DHT22;43233;48.608;8.838;2023-03-14T14:41:34;7.20;56.10
32293;DHT22;43233;48.608;8.838;2023-03-14T14:44:02;7.50;53.40
32293;DHT22;43233;48.608;8.838;2023-03-14T14:46:31;7.40;52.20
32293;DHT22;43233;48.608;8.838;2023-03-14T14:49:06;7.50;53.50
32293;DHT22;43233;48.608;8.838;2023-03-14T14:51:42;7.50;53.90
32293;DHT22;43233;48.608;8.838;2023-03-14T14:56:39;7.40;51.70
32293;DHT22;43233;48.608;8.838;2023-03-14T14:59:17;7.40;53.40
32293;DHT22;43233;48.608;8.838;2023-03-14T15:01:43;7.40;53.90
32293;DHT22;43233;48.608;8.838;2023-03-14T15:04:11;7.30;53.10
32293;DHT22;43233;48.608;8.838;2023-03-14T15:06:39;7.30;53.80
32293;DHT22;43233;48.608;8.838;2023-03-14T15:09:05;7.20;54.30
32293;DHT22;43233;48.608;8.838;2023-03-14T15:11:30;7.20;54.00
32293;DHT22;43233;48.608;8.838;2023-03-14T15:13:56;7.20;54.50
32293;DHT22;43233;48.608;8.838;2023-03-14T15:16:25;7.10;55.00
32293;DHT22;43233;48.608;8.838;2023-03-14T15:18:57;7.10;55.70
32293;DHT22;43233;48.608;8.838;2023-03-14T15:21:24;7.00;52.70
32293;DHT22;43233;48.608;8.838;2023-03-14T15:23:50;7.00;53.90
32293;DHT22;43233;48.608;8.838;2023-03-14T15:26:21;7.00;55.90
32293;DHT22;43233;48.608;8.838;2023-03-14T15:28:48;7.00;57.20
32293;DHT22;43233;48.608;8.838;2023-03-14T15:31:15;7.00;57.20
32293;DHT22;43233;48.608;8.838;2023-03-14T15:33:43;7.00;56.90
32293;DHT22;43233;48.608;8.838;2023-03-14T15:36:30;7.00;55.70
32293;DHT22;43233;48.608;8.838;2023-03-14T15:38:57;7.00;57.40
32293;DHT22;43233;48.608;8.838;2023-03-14T15:41:24;7.00;57.10
32293;DHT22;43233;48.608;8.838;2023-03-14T15:43:50;7.00;55.30
32293;DHT22;43233;48.608;8.838;2023-03-14T15:46:16;7.00;55.60
32293;DHT22;43233;48.608;8.838;2023-03-14T15:48:44;6.90;55.10
32293;DHT22;43233;48.608;8.838;2023-03-14T15:51:10;6.90;56.80
32293;DHT22;43233;48.608;8.838;2023-03-14T15:53:36;6.90;55.10
32293;DHT22;43233;48.608;8.838;2023-03-14T15:56:06;6.90;55.10
32293;DHT22;43233;48.608;8.838;2023-03-14T15:58:33;6.90;55.20
32293;DHT22;43233;48.608;8.838;2023-03-14T16:01:00;6.90;55.60
32293;DHT22;43233;48.608;8.838;2023-03-14T16:03:27;6.90;57.20
32293;DHT22;43233;48.608;8.838;2023-03-14T16:05:53;6.90;57.30
32293;DHT22;43233;48.608;8.838;2023-03-14T16:08:19;7.00;57.50
32293;DHT22;43233;48.608;8.838;2023-03-14T16:10:45;7.10;56.90
32293;DHT22;43233;48.608;8.838;2023-03-14T16:13:11;7.10;56.00
32293;DHT22;43233;48.608;8.838;2023-03-14T16:15:37;7.00;57.30
32293;DHT22;43233;48.608;8.838;2023-03-14T16:18:03;6.90;56.00
32293;DHT22;43233;48.608;8.838;2023-03-14T16:20:29;6.90;57.50
32293;DHT22;43233;48.608;8.838;2023-03-14T16:22:54;6.90;56.60
32293;DHT22;43233;48.608;8.838;2023-03-14T16:25:20;6.80;57.30
32293;DHT22;43233;48.608;8.838;2023-03-14T16:27:46;6.80;57.80
32293;DHT22;43233;48.608;8.838;2023-03-14T16:30:12;6.70;58.60
32293;DHT22;43233;48.608;8.838;2023-03-14T16:32:38;6.70;59.30
32293;DHT22;43233;48.608;8.838;2023-03-14T16:35:04;6.70;59.70
32293;DHT22;43233;48.608;8.838;2023-03-14T16:37:30;6.70;61.60
32293;DHT22;43233;48.608;8.838;2023-03-14T16:39:56;6.60;62.10
32293;DHT22;43233;48.608;8.838;2023-03-14T16:42:22;6.50;63.70
32293;DHT22;43233;48.608;8.838;2023-03-14T16:44:48;6.30;68.30
32293;DHT22;43233;48.608;8.838;2023-03-14T16:47:13;6.10;72.10
32293;DHT22;43233;48.608;8.838;2023-03-14T16:49:39;5.90;72.70
32293;DHT22;43233;48.608;8.838;2023-03-14T16:52:05;5.70;76.40
32293;DHT22;43233;48.608;8.838;2023-03-14T16:54:32;5.50;78.30
32293;DHT22;43233;48.608;8.838;2023-03-14T16:56:58;5.40;81.50
32293;DHT22;43233;48.608;8.838;2023-03-14T16:59:23;5.30;81.60
32293;DHT22;43233;48.608;8.838;2023-03-14T17:01:51;5.20;81.70
32293;DHT22;43233;48.608;8.838;2023-03-14T17:04:16;5.20;82.20